createdAt,value
2016-11-22T00:00:42.873Z,998.54
2016-11-22T00:01:51.889Z,998.44
2016-11-22T00:03:01.834Z,998.42
2016-11-22T00:04:10.860Z,998.28
2016-11-22T00:05:19.879Z,998.33
2016-11-22T00:06:29.506Z,998.27
2016-11-22T00:07:38.529Z,998.37
2016-11-22T00:08:47.568Z,998.42
2016-11-22T00:09:56.299Z,998.33
2016-11-22T00:11:05.613Z,998.19
2016-11-22T00:12:14.620Z,998.08
2016-11-22T00:13:23.308Z,998.03
2016-11-22T00:14:32.314Z,997.92
2016-11-22T00:15:41.332Z,997.92
2016-11-22T00:16:50.349Z,997.95
2016-11-22T00:17:59.048Z,997.94
2016-11-22T00:19:08.386Z,998
2016-11-22T00:20:17.457Z,998.06
2016-11-22T00:21:26.820Z,998.09
2016-11-22T00:22:36.133Z,998.09
2016-11-22T00:23:45.178Z,998.13
2016-11-22T00:24:54.503Z,998.1
2016-11-22T00:26:03.515Z,998.03
2016-11-22T00:27:12.828Z,998.01
2016-11-22T00:28:21.857Z,998.04
2016-11-22T00:29:31.174Z,998.15
2016-11-22T00:30:39.883Z,998.31
2016-11-22T00:31:49.515Z,998.28
2016-11-22T00:32:58.216Z,998.22
2016-11-22T00:34:07.223Z,998.31
2016-11-22T00:35:16.261Z,998.45
2016-11-22T00:36:25.298Z,998.42
2016-11-22T00:37:34.597Z,998.42
2016-11-22T00:38:43.604Z,998.3
2016-11-22T00:39:52.609Z,998.1
2016-11-22T00:41:01.626Z,998.18
2016-11-22T00:42:10.336Z,998.22
2016-11-22T00:43:19.652Z,998.02
2016-11-22T00:44:28.373Z,997.98
2016-11-22T00:45:38.003Z,997.98
2016-11-22T00:46:46.740Z,997.96
2016-11-22T00:47:55.441Z,998.07
2016-11-22T00:49:04.741Z,998.3
2016-11-22T00:50:13.462Z,998.3
2016-11-22T00:51:22.160Z,998.22
2016-11-22T00:52:30.869Z,998.37
2016-11-22T00:53:40.244Z,998.35
2016-11-22T00:54:49.579Z,998.28
2016-11-22T00:55:59.220Z,998.24
2016-11-22T00:57:08.544Z,998.26
2016-11-22T00:58:17.622Z,998.26
2016-11-22T00:59:26.652Z,998.29
2016-11-22T01:00:35.436Z,998.22
2016-11-22T01:01:44.479Z,998.28
2016-11-22T01:02:53.230Z,998.21
2016-11-22T01:04:02.253Z,998.23
2016-11-22T01:05:11.256Z,998.25
2016-11-22T01:06:20.323Z,998.23
2016-11-22T01:07:29.965Z,998.27
2016-11-22T01:08:38.713Z,998.39
2016-11-22T01:09:47.723Z,998.4
2016-11-22T01:10:56.418Z,998.53
2016-11-22T01:12:05.221Z,998.51
2016-11-22T01:13:14.575Z,998.44
2016-11-22T01:14:23.903Z,998.36
2016-11-22T01:15:33.206Z,998.21
2016-11-22T01:16:42.248Z,997.9
2016-11-22T01:17:51.318Z,997.81
2016-11-22T01:19:00.613Z,997.67
2016-11-22T01:20:09.326Z,997.53
2016-11-22T01:21:18.671Z,997.3
2016-11-22T01:22:28.647Z,997.34
2016-11-22T01:23:37.437Z,997.17
2016-11-22T01:24:46.160Z,997.18
2016-11-22T01:25:55.204Z,997.33
2016-11-22T01:27:03.895Z,997.44
2016-11-22T01:28:12.899Z,997.52
2016-11-22T01:29:21.618Z,997.5
2016-11-22T01:30:31.575Z,997.41
2016-11-22T01:31:40.301Z,997.56
2016-11-22T01:32:49.064Z,997.75
2016-11-22T01:33:58.379Z,997.9
2016-11-22T01:35:07.408Z,998.01
2016-11-22T01:36:16.146Z,998.14
2016-11-22T01:37:24.858Z,998.42
2016-11-22T01:38:33.578Z,998.57
2016-11-22T01:39:42.622Z,998.78
2016-11-22T01:40:51.627Z,998.97
2016-11-22T01:42:00.622Z,999.15
2016-11-22T01:43:09.965Z,999.29
2016-11-22T01:44:18.685Z,999.44
2016-11-22T01:45:28.606Z,999.51
2016-11-22T01:46:38.261Z,999.58
2016-11-22T01:47:47.351Z,999.65
2016-11-22T01:48:56.383Z,999.67
2016-11-22T01:50:06.012Z,999.72
2016-11-22T01:51:14.996Z,999.83
2016-11-22T01:52:23.764Z,999.76
2016-11-22T01:53:32.789Z,999.78
2016-11-22T01:54:41.541Z,999.8
2016-11-22T01:55:50.589Z,999.8
2016-11-22T01:56:59.956Z,999.83
2016-11-22T01:58:09.039Z,999.85
2016-11-22T01:59:18.351Z,999.86
2016-11-22T02:00:27.374Z,999.91
2016-11-22T02:01:36.128Z,999.92
2016-11-22T02:02:45.133Z,1000.01
2016-11-22T02:03:54.159Z,1000.01
2016-11-22T02:05:03.231Z,1000.01
2016-11-22T02:06:11.991Z,999.99
2016-11-22T02:07:21.081Z,1000.03
2016-11-22T02:08:30.433Z,1000.06
2016-11-22T02:09:39.561Z,1000.09
2016-11-22T02:10:48.581Z,1000.08
2016-11-22T02:11:57.653Z,1000.08
2016-11-22T02:13:06.403Z,1000.07
2016-11-22T02:14:16.320Z,1000.06
2016-11-22T02:15:25.049Z,999.96
2016-11-22T02:16:34.393Z,999.91
2016-11-22T02:17:43.123Z,999.87
2016-11-22T02:18:52.144Z,999.84
2016-11-22T02:20:01.156Z,999.88
2016-11-22T02:21:10.179Z,999.88
2016-11-22T02:22:18.914Z,999.87
2016-11-22T02:23:27.927Z,1000.02
2016-11-22T02:24:36.625Z,1000
2016-11-22T02:25:45.709Z,1000.08
2016-11-22T02:26:54.792Z,1000.08
2016-11-22T02:28:03.797Z,1000.05
2016-11-22T02:29:13.468Z,1000.04
2016-11-22T02:30:22.490Z,1000.03
2016-11-22T02:31:31.200Z,999.95
2016-11-22T02:32:40.218Z,1000.02
2016-11-22T02:33:49.015Z,999.93
2016-11-22T02:34:58.057Z,999.86
2016-11-22T02:36:06.783Z,999.77
2016-11-22T02:37:15.519Z,999.7
2016-11-22T02:38:24.831Z,999.68
2016-11-22T02:39:33.876Z,999.66
2016-11-22T02:40:42.598Z,999.64
2016-11-22T02:41:51.643Z,999.65
2016-11-22T02:43:00.663Z,999.72
2016-11-22T02:44:09.689Z,999.79
2016-11-22T02:45:18.392Z,1000
2016-11-22T02:46:27.747Z,1000.16
2016-11-22T02:47:36.462Z,1000.2
2016-11-22T02:48:46.081Z,1000.21
2016-11-22T02:49:55.429Z,1000.18
2016-11-22T02:51:04.747Z,1000.19
2016-11-22T02:52:14.726Z,1000.07
2016-11-22T02:53:23.443Z,1000.01
2016-11-22T02:54:32.143Z,1000.02
2016-11-22T02:55:41.166Z,999.9
2016-11-22T02:56:50.187Z,999.83
2016-11-22T02:57:59.496Z,999.72
2016-11-22T02:59:08.506Z,999.63
2016-11-22T03:00:17.509Z,999.47
2016-11-22T03:01:26.231Z,999.48
2016-11-22T03:02:35.525Z,999.57
2016-11-22T03:03:44.228Z,999.81
2016-11-22T03:04:52.927Z,1000.23
2016-11-22T03:06:01.646Z,1000.37
2016-11-22T03:07:10.962Z,1000.37
2016-11-22T03:08:19.669Z,1000.3
2016-11-22T03:09:28.703Z,1000.28
2016-11-22T03:10:37.439Z,1000.3
2016-11-22T03:11:46.526Z,1000.39
2016-11-22T03:12:55.230Z,1000.5
2016-11-22T03:14:04.251Z,1000.44
2016-11-22T03:15:13.587Z,1000.44
2016-11-22T03:16:22.927Z,1000.38
2016-11-22T03:17:31.964Z,1000.3
2016-11-22T03:18:41.321Z,1000.28
2016-11-22T03:19:50.315Z,1000.38
2016-11-22T03:20:59.025Z,1000.36
2016-11-22T03:22:08.041Z,1000.28
2016-11-22T03:23:17.366Z,1000.13
2016-11-22T03:24:26.686Z,1000.05
2016-11-22T03:25:36.007Z,1000.03
2016-11-22T03:26:45.323Z,999.96
2016-11-22T03:27:54.327Z,1000.08
2016-11-22T03:29:03.334Z,1000.31
2016-11-22T03:30:12.108Z,1000.49
2016-11-22T03:31:21.133Z,1000.51
2016-11-22T03:32:30.767Z,1000.55
2016-11-22T03:33:39.784Z,1000.53
2016-11-22T03:34:49.082Z,1000.49
2016-11-22T03:35:58.133Z,1000.41
2016-11-22T03:37:06.875Z,1000.44
2016-11-22T03:38:15.572Z,1000.52
2016-11-22T03:39:24.295Z,1000.62
2016-11-22T03:40:34.236Z,1000.58
2016-11-22T03:41:43.928Z,1000.57
2016-11-22T03:42:53.235Z,1000.5
2016-11-22T03:44:01.932Z,1000.55
2016-11-22T03:45:11.558Z,1000.65
2016-11-22T03:46:20.553Z,1000.55
2016-11-22T03:47:29.869Z,1000.48
2016-11-22T03:48:38.577Z,1000.4
2016-11-22T03:49:48.485Z,1000.39
2016-11-22T03:50:57.169Z,1000.36
2016-11-22T03:52:06.175Z,1000.5
2016-11-22T03:53:14.868Z,1000.78
2016-11-22T03:54:23.878Z,1001.09
2016-11-22T03:55:33.489Z,1001.16
2016-11-22T03:56:42.503Z,1001.2
2016-11-22T03:57:51.825Z,1001.19
2016-11-22T03:59:00.528Z,1001.14
2016-11-22T04:00:09.832Z,1001.16
2016-11-22T04:01:18.837Z,1001.21
2016-11-22T04:02:28.139Z,1001.31
2016-11-22T04:03:37.131Z,1001.31
2016-11-22T04:04:46.128Z,1001.34
2016-11-22T04:05:55.152Z,1001.41
2016-11-22T04:07:04.186Z,1001.43
2016-11-22T04:08:13.234Z,1001.46
2016-11-22T04:09:21.929Z,1001.48
2016-11-22T04:10:31.323Z,1001.48
2016-11-22T04:11:40.960Z,1001.52
2016-11-22T04:12:50.012Z,1001.54
2016-11-22T04:13:59.361Z,1001.63
2016-11-22T04:15:08.683Z,1001.55
2016-11-22T04:16:17.979Z,1001.5
2016-11-22T04:17:27.281Z,1001.45
2016-11-22T04:18:35.984Z,1001.43
2016-11-22T04:19:45.335Z,1001.38
2016-11-22T04:20:54.031Z,1001.37
2016-11-22T04:22:03.412Z,1001.33
2016-11-22T04:23:12.410Z,1001.31
2016-11-22T04:24:21.138Z,1001.19
2016-11-22T04:25:29.896Z,1001.02
2016-11-22T04:26:39.233Z,1000.95
2016-11-22T04:27:49.209Z,1000.87
2016-11-22T04:28:58.018Z,1000.81
2016-11-22T04:30:07.113Z,1000.78
2016-11-22T04:31:16.125Z,1000.78
2016-11-22T04:32:25.126Z,1000.7
2016-11-22T04:33:34.132Z,1000.68
2016-11-22T04:34:43.852Z,1000.58
2016-11-22T04:35:52.593Z,1000.55
2016-11-22T04:37:01.629Z,1000.53
2016-11-22T04:38:10.384Z,1000.5
2016-11-22T04:39:19.405Z,1000.48
2016-11-22T04:40:28.720Z,1000.58
2016-11-22T04:41:37.758Z,1000.76
2016-11-22T04:42:46.754Z,1001
2016-11-22T04:43:55.456Z,1001.09
2016-11-22T04:45:04.458Z,1001.09
2016-11-22T04:46:14.446Z,1001.11
2016-11-22T04:47:23.177Z,1001
2016-11-22T04:48:31.911Z,1000.96
2016-11-22T04:49:40.644Z,1000.99
2016-11-22T04:50:49.660Z,1001.08
2016-11-22T04:51:59.075Z,1001.1
2016-11-22T04:53:07.823Z,1001.05
2016-11-22T04:54:16.524Z,1001.08
2016-11-22T04:55:25.629Z,1001.15
2016-11-22T04:56:34.661Z,1001.28
2016-11-22T04:57:43.425Z,1001.28
2016-11-22T04:58:52.151Z,1001.31
2016-11-22T05:00:00.920Z,1001.36
2016-11-22T05:01:10.217Z,1001.4
2016-11-22T05:02:19.551Z,1001.46
2016-11-22T05:03:28.575Z,1001.49
2016-11-22T05:04:38.276Z,1001.64
2016-11-22T05:05:47.019Z,1001.66
2016-11-22T05:06:56.090Z,1001.69
2016-11-22T05:08:05.152Z,1001.78
2016-11-22T05:09:14.223Z,1001.83
2016-11-22T05:10:23.291Z,1001.89
2016-11-22T05:11:32.612Z,1001.97
2016-11-22T05:12:41.626Z,1001.99
2016-11-22T05:13:50.731Z,1002
2016-11-22T05:14:59.437Z,1002.05
2016-11-22T05:16:08.777Z,1002.06
2016-11-22T05:17:18.421Z,1002.09
2016-11-22T05:18:28.397Z,1002.12
2016-11-22T05:19:37.414Z,1002.07
2016-11-22T05:20:46.442Z,1002.04
2016-11-22T05:21:55.781Z,1002.07
2016-11-22T05:23:05.110Z,1002.14
2016-11-22T05:24:13.907Z,1002.13
2016-11-22T05:25:22.946Z,1002.16
2016-11-22T05:26:31.959Z,1002.04
2016-11-22T05:27:40.674Z,1002.05
2016-11-22T05:28:49.679Z,1002.08
2016-11-22T05:29:59.315Z,1002.14
2016-11-22T05:31:08.342Z,1002.16
2016-11-22T05:32:17.091Z,1002.2
2016-11-22T05:33:26.112Z,1002.28
2016-11-22T05:34:34.846Z,1002.35
2016-11-22T05:35:44.211Z,1002.32
2016-11-22T05:36:52.918Z,1002.31
2016-11-22T05:38:01.922Z,1002.35
2016-11-22T05:39:10.922Z,1002.39
2016-11-22T05:40:19.626Z,1002.39
2016-11-22T05:41:28.939Z,1002.4
2016-11-22T05:42:37.953Z,1002.41
2016-11-22T05:43:46.993Z,1002.4
2016-11-22T05:44:55.751Z,1002.36
2016-11-22T05:46:05.086Z,1002.29
2016-11-22T05:47:14.451Z,1002.32
2016-11-22T05:48:23.163Z,1002.38
2016-11-22T05:49:32.182Z,1002.35
2016-11-22T05:50:41.200Z,1002.34
2016-11-22T05:51:50.529Z,1002.31
2016-11-22T05:52:59.849Z,1002.39
2016-11-22T05:54:08.856Z,1002.39
2016-11-22T05:55:17.882Z,1002.34
2016-11-22T05:56:27.829Z,1002.36
2016-11-22T05:57:37.443Z,1002.35
2016-11-22T05:58:46.761Z,1002.42
2016-11-22T05:59:55.473Z,1002.35
2016-11-22T06:01:04.523Z,1002.3
2016-11-22T06:02:13.854Z,1002.3
2016-11-22T06:03:23.192Z,1002.34
2016-11-22T06:04:31.892Z,1002.32
2016-11-22T06:05:41.196Z,1002.31
2016-11-22T06:06:50.220Z,1002.26
2016-11-22T06:07:58.970Z,1002.32
2016-11-22T06:09:07.957Z,1002.3
2016-11-22T06:10:17.571Z,1002.27
2016-11-22T06:11:26.274Z,1002.24
2016-11-22T06:12:35.647Z,1002.23
2016-11-22T06:13:44.670Z,1002.22
2016-11-22T06:14:53.432Z,1002.23
2016-11-22T06:16:02.765Z,1002.21
2016-11-22T06:17:11.798Z,1002.27
2016-11-22T06:18:20.808Z,1002.35
2016-11-22T06:19:29.802Z,1002.31
2016-11-22T06:20:38.519Z,1002.35
2016-11-22T06:21:47.522Z,1002.37
2016-11-22T06:22:56.212Z,1002.4
2016-11-22T06:24:04.919Z,1002.41
2016-11-22T06:25:13.629Z,1002.43
2016-11-22T06:26:23.315Z,1002.46
2016-11-22T06:27:33.567Z,1002.49
2016-11-22T06:28:43.190Z,1002.47
2016-11-22T06:29:52.187Z,1002.46
2016-11-22T06:31:00.928Z,1002.45
2016-11-22T06:32:09.619Z,1002.39
2016-11-22T06:33:18.637Z,1002.44
2016-11-22T06:34:27.385Z,1002.41
2016-11-22T06:35:36.836Z,1002.46
2016-11-22T06:36:46.160Z,1002.48
2016-11-22T06:37:54.882Z,1002.46
2016-11-22T06:39:03.930Z,1002.44
2016-11-22T06:40:12.943Z,1002.41
2016-11-22T06:41:22.566Z,1002.37
2016-11-22T06:42:31.589Z,1002.41
2016-11-22T06:43:40.291Z,1002.43
2016-11-22T06:44:49.001Z,1002.49
2016-11-22T06:45:57.700Z,1002.53
2016-11-22T06:47:06.702Z,1002.59
2016-11-22T06:48:15.711Z,1002.69
2016-11-22T06:49:24.429Z,1002.74
2016-11-22T06:50:33.447Z,1002.77
2016-11-22T06:51:42.168Z,1002.78
2016-11-22T06:52:50.908Z,1002.83
2016-11-22T06:53:59.913Z,1002.88
2016-11-22T06:55:09.550Z,1002.87
2016-11-22T06:56:19.460Z,1002.93
2016-11-22T06:57:28.777Z,1002.98
2016-11-22T06:58:37.483Z,1003.08
2016-11-22T06:59:46.485Z,1003.1
2016-11-22T07:00:55.497Z,1003.17
2016-11-22T07:02:04.500Z,1003.19
2016-11-22T07:03:13.813Z,1003.19
2016-11-22T07:04:22.510Z,1003.27
2016-11-22T07:05:31.211Z,1003.3
2016-11-22T07:06:39.912Z,1003.39
2016-11-22T07:07:49.211Z,1003.37
2016-11-22T07:08:58.515Z,1003.43
2016-11-22T07:10:08.125Z,1003.42
2016-11-22T07:11:16.840Z,1003.49
2016-11-22T07:12:26.166Z,1003.41
2016-11-22T07:13:35.204Z,1003.47
2016-11-22T07:14:44.219Z,1003.53
2016-11-22T07:15:53.243Z,1003.52
2016-11-22T07:17:02.259Z,1003.5
2016-11-22T07:18:11.881Z,1003.49
2016-11-22T07:19:20.582Z,1003.51
2016-11-22T07:20:29.598Z,1003.53
2016-11-22T07:21:38.604Z,1003.49
2016-11-22T07:22:47.917Z,1003.56
2016-11-22T07:23:57.232Z,1003.6
2016-11-22T07:25:06.227Z,1003.6
2016-11-22T07:26:14.956Z,1003.66
2016-11-22T07:27:23.668Z,1003.72
2016-11-22T07:28:32.692Z,1003.79
2016-11-22T07:29:42.012Z,1003.74
2016-11-22T07:30:50.721Z,1003.75
2016-11-22T07:31:59.429Z,1003.74
2016-11-22T07:33:08.178Z,1003.71
2016-11-22T07:34:16.908Z,1003.75
2016-11-22T07:35:25.948Z,1003.74
2016-11-22T07:36:34.966Z,1003.74
2016-11-22T07:37:44.006Z,1003.8
2016-11-22T07:38:53.665Z,1003.78
2016-11-22T07:40:02.974Z,1003.78
2016-11-22T07:41:12.291Z,1003.86
2016-11-22T07:42:21.315Z,1003.86
2016-11-22T07:43:30.632Z,1003.86
2016-11-22T07:44:39.647Z,1003.89
2016-11-22T07:45:48.361Z,1003.85
2016-11-22T07:46:57.382Z,1003.84
2016-11-22T07:48:06.692Z,1003.89
2016-11-22T07:49:16.336Z,1003.89
2016-11-22T07:50:25.638Z,1003.87
2016-11-22T07:51:34.338Z,1003.89
2016-11-22T07:52:44.281Z,1003.88
2016-11-22T07:53:53.285Z,1003.91
2016-11-22T07:55:02.613Z,1003.93
2016-11-22T07:56:11.940Z,1003.95
2016-11-22T07:57:20.651Z,1003.9
2016-11-22T07:58:29.664Z,1003.94
2016-11-22T07:59:38.999Z,1003.95
2016-11-22T08:00:48.630Z,1003.91
2016-11-22T08:01:57.645Z,1003.98
2016-11-22T08:03:06.432Z,1003.98
2016-11-22T08:04:15.781Z,1003.93
2016-11-22T08:05:24.829Z,1003.94
2016-11-22T08:06:34.155Z,1003.99
2016-11-22T08:07:42.874Z,1004.04
2016-11-22T08:08:52.210Z,1004.08
2016-11-22T08:10:01.216Z,1004.14
2016-11-22T08:11:10.846Z,1004.15
2016-11-22T08:12:20.174Z,1004.16
2016-11-22T08:13:29.505Z,1004.2
2016-11-22T08:14:38.520Z,1004.16
2016-11-22T08:15:47.566Z,1004.18
2016-11-22T08:16:56.581Z,1004.23
2016-11-22T08:18:05.601Z,1004.25
2016-11-22T08:19:14.604Z,1004.28
2016-11-22T08:20:23.607Z,1004.33
2016-11-22T08:21:32.625Z,1004.34
2016-11-22T08:22:41.636Z,1004.32
2016-11-22T08:23:50.657Z,1004.35
2016-11-22T08:24:59.692Z,1004.42
2016-11-22T08:26:08.706Z,1004.38
2016-11-22T08:27:17.437Z,1004.47
2016-11-22T08:28:26.467Z,1004.49
2016-11-22T08:29:35.507Z,1004.5
2016-11-22T08:30:44.216Z,1004.54
2016-11-22T08:31:53.234Z,1004.57
2016-11-22T08:33:02.860Z,1004.64
2016-11-22T08:34:11.577Z,1004.64
2016-11-22T08:35:20.947Z,1004.56
2016-11-22T08:36:30.269Z,1004.49
2016-11-22T08:37:39.013Z,1004.43
2016-11-22T08:38:48.363Z,1004.46
2016-11-22T08:39:57.382Z,1004.49
2016-11-22T08:41:06.470Z,1004.41
2016-11-22T08:42:15.235Z,1004.48
2016-11-22T08:43:24.878Z,1004.49
2016-11-22T08:44:34.255Z,1004.53
2016-11-22T08:45:43.596Z,1004.52
2016-11-22T08:46:52.924Z,1004.56
2016-11-22T08:48:02.247Z,1004.52
2016-11-22T08:49:11.267Z,1004.46
2016-11-22T08:50:19.975Z,1004.5
2016-11-22T08:51:29.622Z,1004.47
2016-11-22T08:52:38.648Z,1004.48
2016-11-22T08:53:47.386Z,1004.53
2016-11-22T08:54:56.127Z,1004.51
2016-11-22T08:56:04.885Z,1004.46
2016-11-22T08:57:13.922Z,1004.43
2016-11-22T08:58:22.980Z,1004.5
2016-11-22T08:59:31.704Z,1004.55
2016-11-22T09:00:40.728Z,1004.57
2016-11-22T09:01:49.434Z,1004.56
2016-11-22T09:02:58.141Z,1004.6
2016-11-22T09:04:07.476Z,1004.65
2016-11-22T09:05:16.507Z,1004.66
2016-11-22T09:06:25.550Z,1004.71
2016-11-22T09:07:34.571Z,1004.68
2016-11-22T09:08:43.894Z,1004.68
2016-11-22T09:09:52.914Z,1004.68
2016-11-22T09:11:02.216Z,1004.67
2016-11-22T09:12:10.931Z,1004.7
2016-11-22T09:13:19.699Z,1004.74
2016-11-22T09:14:28.403Z,1004.73
2016-11-22T09:15:37.413Z,1004.73
2016-11-22T09:16:47.112Z,1004.76
2016-11-22T09:17:56.123Z,1004.81
2016-11-22T09:19:05.179Z,1004.92
2016-11-22T09:20:14.807Z,1004.97
2016-11-22T09:21:23.527Z,1004.99
2016-11-22T09:22:32.547Z,1005.03
2016-11-22T09:23:41.270Z,1005.07
2016-11-22T09:24:49.987Z,1005.13
2016-11-22T09:25:58.677Z,1005.19
2016-11-22T09:27:07.683Z,1005.17
2016-11-22T09:28:17.010Z,1005.15
2016-11-22T09:29:26.022Z,1005.17
2016-11-22T09:30:35.038Z,1005.11
2016-11-22T09:31:44.067Z,1005.11
2016-11-22T09:32:53.094Z,1005.15
2016-11-22T09:34:02.105Z,1005.2
2016-11-22T09:35:11.124Z,1005.23
2016-11-22T09:36:20.456Z,1005.25
2016-11-22T09:37:29.848Z,1005.27
2016-11-22T09:38:38.558Z,1005.34
2016-11-22T09:39:47.906Z,1005.39
2016-11-22T09:40:56.915Z,1005.41
2016-11-22T09:42:05.947Z,1005.48
2016-11-22T09:43:15.578Z,1005.48
2016-11-22T09:44:25.203Z,1005.49
2016-11-22T09:45:34.230Z,1005.51
2016-11-22T09:46:43.278Z,1005.44
2016-11-22T09:47:52.648Z,1005.4
2016-11-22T09:49:02.283Z,1005.4
2016-11-22T09:50:11.652Z,1005.4
2016-11-22T09:51:20.390Z,1005.43
2016-11-22T09:52:29.116Z,1005.5
2016-11-22T09:53:37.839Z,1005.52
2016-11-22T09:54:46.581Z,1005.53
2016-11-22T09:55:56.241Z,1005.57
2016-11-22T09:57:05.569Z,1005.59
2016-11-22T09:58:14.911Z,1005.65
2016-11-22T09:59:23.647Z,1005.69
2016-11-22T10:00:32.431Z,1005.73
2016-11-22T10:01:41.147Z,1005.69
2016-11-22T10:02:50.492Z,1005.78
2016-11-22T10:03:59.195Z,1005.73
2016-11-22T10:05:08.210Z,1005.67
2016-11-22T10:06:17.529Z,1005.62
2016-11-22T10:07:26.241Z,1005.61
2016-11-22T10:08:35.557Z,1005.65
2016-11-22T10:09:44.569Z,1005.67
2016-11-22T10:10:53.612Z,1005.72
2016-11-22T10:12:02.625Z,1005.71
2016-11-22T10:13:11.964Z,1005.74
2016-11-22T10:14:20.974Z,1005.74
2016-11-22T10:15:30.304Z,1005.8
2016-11-22T10:16:39.360Z,1005.76
2016-11-22T10:17:48.108Z,1005.77
2016-11-22T10:18:57.415Z,1005.82
2016-11-22T10:20:06.133Z,1005.83
2016-11-22T10:21:15.449Z,1005.78
2016-11-22T10:22:24.511Z,1005.79
2016-11-22T10:23:33.856Z,1005.79
2016-11-22T10:24:42.560Z,1005.82
2016-11-22T10:25:51.253Z,1005.81
2016-11-22T10:26:59.965Z,1005.87
2016-11-22T10:28:09.267Z,1005.86
2016-11-22T10:29:18.327Z,1005.89
2016-11-22T10:30:27.348Z,1005.89
2016-11-22T10:31:36.364Z,1005.9
2016-11-22T10:32:45.382Z,1005.92
2016-11-22T10:33:54.404Z,1005.93
2016-11-22T10:35:03.168Z,1005.98
2016-11-22T10:36:13.093Z,1005.97
2016-11-22T10:37:21.803Z,1005.96
2016-11-22T10:38:30.857Z,1005.93
2016-11-22T10:39:40.165Z,1005.99
2016-11-22T10:40:48.897Z,1006.05
2016-11-22T10:41:58.238Z,1006.07
2016-11-22T10:43:06.944Z,1006.09
2016-11-22T10:44:15.659Z,1006.09
2016-11-22T10:45:24.698Z,1006.01
2016-11-22T10:46:33.412Z,1006.05
2016-11-22T10:47:42.454Z,1006.03
2016-11-22T10:48:51.509Z,1006.03
2016-11-22T10:50:00.227Z,1006.02
2016-11-22T10:51:09.555Z,1006.05
2016-11-22T10:52:18.585Z,1006.09
2016-11-22T10:53:27.961Z,1006.06
2016-11-22T10:54:36.739Z,1006.04
2016-11-22T10:55:45.760Z,1006.02
2016-11-22T10:56:55.164Z,1006.01
2016-11-22T10:58:05.089Z,1006.05
2016-11-22T10:59:13.799Z,1006.08
2016-11-22T11:00:22.816Z,1006.09
2016-11-22T11:01:32.482Z,1006.11
2016-11-22T11:02:41.876Z,1006.06
2016-11-22T11:03:50.982Z,1006.05
2016-11-22T11:05:00.321Z,1006.1
2016-11-22T11:06:09.659Z,1006.06
2016-11-22T11:07:18.367Z,1006.06
2016-11-22T11:08:27.066Z,1006.05
2016-11-22T11:09:36.066Z,1006.03
2016-11-22T11:10:45.684Z,1005.95
2016-11-22T11:11:54.385Z,1005.95
2016-11-22T11:13:03.998Z,1005.98
2016-11-22T11:14:13.000Z,1005.98
2016-11-22T11:15:22.332Z,1005.97
2016-11-22T11:16:31.652Z,1005.97
2016-11-22T11:17:40.352Z,1005.97
2016-11-22T11:18:49.376Z,1006.03
2016-11-22T11:19:58.066Z,1006.02
2016-11-22T11:21:07.390Z,1006.05
2016-11-22T11:22:16.403Z,1006.05
2016-11-22T11:23:25.405Z,1006.08
2016-11-22T11:24:34.125Z,1006.06
2016-11-22T11:25:43.163Z,1006.08
2016-11-22T11:26:52.269Z,1006.07
2016-11-22T11:28:01.626Z,1006.02
2016-11-22T11:29:10.348Z,1005.99
2016-11-22T11:30:19.975Z,1005.96
2016-11-22T11:31:29.294Z,1005.96
2016-11-22T11:32:38.318Z,1005.97
2016-11-22T11:33:47.349Z,1005.99
2016-11-22T11:34:56.072Z,1005.91
2016-11-22T11:36:05.428Z,1005.83
2016-11-22T11:37:14.743Z,1005.82
2016-11-22T11:38:23.771Z,1005.79
2016-11-22T11:39:32.807Z,1005.79
2016-11-22T11:40:41.516Z,1005.76
2016-11-22T11:41:50.830Z,1005.82
2016-11-22T11:42:59.877Z,1005.84
2016-11-22T11:44:08.647Z,1005.77
2016-11-22T11:45:17.975Z,1005.8
2016-11-22T11:46:27.594Z,1005.83
2016-11-22T11:47:36.331Z,1005.86
2016-11-22T11:48:45.452Z,1005.87
2016-11-22T11:49:54.779Z,1005.86
2016-11-22T11:51:03.795Z,1005.89
2016-11-22T11:52:12.829Z,1005.91
2016-11-22T11:53:21.853Z,1005.86
2016-11-22T11:54:31.494Z,1005.86
2016-11-22T11:55:40.839Z,1005.86
2016-11-22T11:56:49.905Z,1005.83
2016-11-22T11:57:58.977Z,1005.83
2016-11-22T11:59:07.756Z,1005.83
2016-11-22T12:00:16.769Z,1005.83
2016-11-22T12:01:25.494Z,1005.82
2016-11-22T12:02:34.833Z,1005.84
2016-11-22T12:03:44.164Z,1005.85
2016-11-22T12:04:53.184Z,1005.85
2016-11-22T12:06:02.192Z,1005.86
2016-11-22T12:07:11.512Z,1005.81
2016-11-22T12:08:20.825Z,1005.86
2016-11-22T12:09:29.845Z,1005.83
2016-11-22T12:10:39.169Z,1005.82
2016-11-22T12:11:48.518Z,1005.81
2016-11-22T12:12:57.260Z,1005.77
2016-11-22T12:14:06.266Z,1005.73
2016-11-22T12:15:15.275Z,1005.77
2016-11-22T12:16:24.303Z,1005.71
2016-11-22T12:17:33.640Z,1005.78
2016-11-22T12:18:42.668Z,1005.78
2016-11-22T12:19:51.771Z,1005.83
2016-11-22T12:21:00.482Z,1005.84
2016-11-22T12:22:09.501Z,1005.84
2016-11-22T12:23:18.526Z,1005.87
2016-11-22T12:24:27.235Z,1005.85
2016-11-22T12:25:36.871Z,1005.83
2016-11-22T12:26:45.915Z,1005.8
2016-11-22T12:27:54.625Z,1005.82
2016-11-22T12:29:04.327Z,1005.79
2016-11-22T12:30:13.344Z,1005.8
2016-11-22T12:31:22.074Z,1005.81
2016-11-22T12:32:30.790Z,1005.85
2016-11-22T12:33:39.506Z,1005.86
2016-11-22T12:34:48.525Z,1005.82
2016-11-22T12:35:57.548Z,1005.8
2016-11-22T12:37:06.263Z,1005.74
2016-11-22T12:38:15.566Z,1005.74
2016-11-22T12:39:24.905Z,1005.7
2016-11-22T12:40:33.946Z,1005.71
2016-11-22T12:41:42.969Z,1005.72
2016-11-22T12:42:51.682Z,1005.78
2016-11-22T12:44:00.395Z,1005.81
2016-11-22T12:45:09.757Z,1005.84
2016-11-22T12:46:19.075Z,1005.82
2016-11-22T12:47:27.826Z,1005.82
2016-11-22T12:48:36.529Z,1005.83
2016-11-22T12:49:45.898Z,1005.79
2016-11-22T12:50:55.534Z,1005.77
2016-11-22T12:52:04.626Z,1005.86
2016-11-22T12:53:13.325Z,1005.82
2016-11-22T12:54:22.640Z,1005.83
2016-11-22T12:55:32.376Z,1005.81
2016-11-22T12:56:41.395Z,1005.75
2016-11-22T12:57:50.431Z,1005.79
2016-11-22T12:58:59.456Z,1005.73
2016-11-22T13:00:08.488Z,1005.7
2016-11-22T13:01:17.509Z,1005.67
2016-11-22T13:02:26.533Z,1005.65
2016-11-22T13:03:35.268Z,1005.58
2016-11-22T13:04:44.296Z,1005.55
2016-11-22T13:05:53.641Z,1005.52
2016-11-22T13:07:02.393Z,1005.5
2016-11-22T13:08:11.737Z,1005.53
2016-11-22T13:09:20.770Z,1005.49
2016-11-22T13:10:29.806Z,1005.48
2016-11-22T13:11:38.496Z,1005.48
2016-11-22T13:12:47.543Z,1005.5
2016-11-22T13:13:56.551Z,1005.5
2016-11-22T13:15:05.877Z,1005.57
2016-11-22T13:16:15.214Z,1005.59
2016-11-22T13:17:23.951Z,1005.66
2016-11-22T13:18:32.724Z,1005.64
2016-11-22T13:19:42.049Z,1005.69
2016-11-22T13:20:51.068Z,1005.7
2016-11-22T13:22:00.721Z,1005.73
2016-11-22T13:23:09.820Z,1005.72
2016-11-22T13:24:18.847Z,1005.7
2016-11-22T13:25:27.876Z,1005.71
2016-11-22T13:26:36.930Z,1005.79
2016-11-22T13:27:45.671Z,1005.87
2016-11-22T13:28:54.998Z,1005.95
2016-11-22T13:30:04.014Z,1005.94
2016-11-22T13:31:13.364Z,1006.01
2016-11-22T13:32:22.394Z,1006.04
2016-11-22T13:33:31.398Z,1006.06
2016-11-22T13:34:40.728Z,1006.09
2016-11-22T13:35:49.473Z,1006.12
2016-11-22T13:36:58.185Z,1006.1
2016-11-22T13:38:07.207Z,1006.09
2016-11-22T13:39:16.220Z,1006.06
2016-11-22T13:40:25.533Z,1005.97
2016-11-22T13:41:34.549Z,1005.98
2016-11-22T13:42:43.568Z,1005.96
2016-11-22T13:43:53.187Z,1005.94
2016-11-22T13:45:02.266Z,1005.9
2016-11-22T13:46:11.596Z,1005.91
2016-11-22T13:47:20.301Z,1005.93
2016-11-22T13:48:29.021Z,1005.97
2016-11-22T13:49:38.376Z,1006.05
2016-11-22T13:50:47.434Z,1006.1
2016-11-22T13:51:56.755Z,1006.12
2016-11-22T13:53:05.821Z,1006.2
2016-11-22T13:54:15.128Z,1006.22
2016-11-22T13:55:24.800Z,1006.24
2016-11-22T13:56:33.802Z,1006.25
2016-11-22T13:57:42.517Z,1006.3
2016-11-22T13:58:51.556Z,1006.31
2016-11-22T14:00:00.582Z,1006.33
2016-11-22T14:01:09.288Z,1006.37
2016-11-22T14:02:18.326Z,1006.42
2016-11-22T14:03:27.641Z,1006.5